This is the latest recevied weather packets stored in our database for station/object EA4BCR. If no packets are shown the sender has not sent any weather packets the latest 10 day(s).
| Time | Temp. | Humidity | Pressure | Rain* | Wind** | Luminosity | Snow |
|---|---|---|---|---|---|---|---|
| 1787431209 | 26.11° C | 60% | 1013.2 hPa | - | - | - | - |
| 1787430610 | 25.56° C | 61% | 1013 hPa | - | - | - | - |
| 1787430009 | 26.11° C | 59% | 1012.7 hPa | - | - | - | - |
| 1787429409 | 26.11° C | 59% | 1012.4 hPa | - | - | - | - |
| 1787428809 | 25.56° C | 61% | 1012.3 hPa | - | - | - | - |
| 1787428209 | 26.11° C | 56% | 1012.1 hPa | - | - | - | - |
| 1787427610 | 26.67° C | 53% | 1011.7 hPa | - | - | - | - |
| 1787427009 | 27.22° C | 48% | 1011.2 hPa | - | - | - | - |
| 1787426410 | 27.22° C | 43% | 1011.1 hPa | - | - | - | - |
| 1787425809 | 27.78° C | 40% | 1010.6 hPa | - | - | - | - |
| 1787425210 | 28.33° C | 38% | 1010.4 hPa | - | - | - | - |
| 1787424609 | 28.33° C | 38% | 1010.2 hPa | - | - | - | - |
| 1787424011 | 28.33° C | 38% | 1010.1 hPa | - | - | - | - |
| 1787423410 | 28.33° C | 38% | 1010.2 hPa | - | - | - | - |
| 1787422809 | 28.89° C | 37% | 1010.2 hPa | - | - | - | - |
| 1787422209 | 29.44° C | 35% | 1009.8 hPa | - | - | - | - |
| 1787421609 | 30° C | 34% | 1009.6 hPa | - | - | - | - |
| 1787421009 | 29.44° C | 34% | 1009.7 hPa | - | - | - | - |
| 1787420409 | 29.44° C | 34% | 1009.5 hPa | - | - | - | - |
| 1787419809 | 30° C | 33% | 1009.4 hPa | - | - | - | - |
| 1787419210 | 30° C | 35% | 1009.6 hPa | - | - | - | - |
| 1787418609 | 30.56° C | 32% | 1009.2 hPa | - | - | - | - |
| 1787418011 | 30° C | 34% | 1009.4 hPa | - | - | - | - |
| 1787417409 | 31.11° C | 34% | 1009 hPa | - | - | - | - |
| 1787416809 | 31.11° C | 35% | 1009 hPa | - | - | - | - |
* Rain since midnight (hover to see other rain measurements)
** Current wind speed in m/s (hover to see current wind gust speed)